sensor_id;sensor_type;location;lat;lon;timestamp;P1;durP1;ratioP1;P2;durP2;ratioP2
22525;SDS011;11429;50.842;4.386;2023-05-01T00:02:22;4.65;;;2.63;;
22525;SDS011;11429;50.842;4.386;2023-05-01T00:04:48;4.93;;;3.05;;
22525;SDS011;11429;50.842;4.386;2023-05-01T00:07:13;4.35;;;2.80;;
22525;SDS011;11429;50.842;4.386;2023-05-01T00:09:40;5.65;;;3.05;;
22525;SDS011;11429;50.842;4.386;2023-05-01T00:12:06;5.65;;;2.97;;
22525;SDS011;11429;50.842;4.386;2023-05-01T00:14:31;6.55;;;2.90;;
22525;SDS011;11429;50.842;4.386;2023-05-01T00:16:57;4.70;;;2.65;;
22525;SDS011;11429;50.842;4.386;2023-05-01T00:19:23;3.95;;;2.75;;
22525;SDS011;11429;50.842;4.386;2023-05-01T00:21:48;4.20;;;2.75;;
22525;SDS011;11429;50.842;4.386;2023-05-01T00:24:16;4.90;;;2.67;;
22525;SDS011;11429;50.842;4.386;2023-05-01T00:26:42;3.30;;;2.67;;
22525;SDS011;11429;50.842;4.386;2023-05-01T00:29:09;7.50;;;3.00;;
22525;SDS011;11429;50.842;4.386;2023-05-01T00:31:34;5.25;;;2.80;;
22525;SDS011;11429;50.842;4.386;2023-05-01T00:34:00;5.10;;;2.90;;
22525;SDS011;11429;50.842;4.386;2023-05-01T00:36:26;3.53;;;3.08;;
22525;SDS011;11429;50.842;4.386;2023-05-01T00:38:52;5.20;;;3.00;;
22525;SDS011;11429;50.842;4.386;2023-05-01T00:41:17;4.22;;;3.00;;
22525;SDS011;11429;50.842;4.386;2023-05-01T00:43:43;4.50;;;2.70;;
22525;SDS011;11429;50.842;4.386;2023-05-01T00:46:09;4.18;;;2.70;;
22525;SDS011;11429;50.842;4.386;2023-05-01T00:48:35;6.18;;;2.78;;
22525;SDS011;11429;50.842;4.386;2023-05-01T00:51:03;5.40;;;3.03;;
22525;SDS011;11429;50.842;4.386;2023-05-01T00:53:32;4.70;;;3.03;;
22525;SDS011;11429;50.842;4.386;2023-05-01T00:55:57;4.75;;;3.10;;
22525;SDS011;11429;50.842;4.386;2023-05-01T00:58:24;4.75;;;2.75;;
22525;SDS011;11429;50.842;4.386;2023-05-01T01:00:51;5.50;;;3.03;;
22525;SDS011;11429;50.842;4.386;2023-05-01T01:03:17;5.15;;;2.60;;
22525;SDS011;11429;50.842;4.386;2023-05-01T01:05:50;5.63;;;2.83;;
22525;SDS011;11429;50.842;4.386;2023-05-01T01:08:28;3.20;;;2.78;;
22525;SDS011;11429;50.842;4.386;2023-05-01T01:14:31;5.28;;;2.95;;
22525;SDS011;11429;50.842;4.386;2023-05-01T01:17:08;4.30;;;2.80;;
22525;SDS011;11429;50.842;4.386;2023-05-01T01:22:31;6.28;;;2.92;;
22525;SDS011;11429;50.842;4.386;2023-05-01T01:36:16;4.47;;;2.75;;
22525;SDS011;11429;50.842;4.386;2023-05-01T01:38:45;5.38;;;2.90;;
22525;SDS011;11429;50.842;4.386;2023-05-01T01:41:39;3.45;;;2.55;;
22525;SDS011;11429;50.842;4.386;2023-05-01T01:44:11;4.45;;;2.97;;
22525;SDS011;11429;50.842;4.386;2023-05-01T01:46:58;4.93;;;2.70;;
22525;SDS011;11429;50.842;4.386;2023-05-01T01:49:28;51.05;;;35.03;;
22525;SDS011;11429;50.842;4.386;2023-05-01T01:51:56;35.90;;;22.52;;
22525;SDS011;11429;50.842;4.386;2023-05-01T01:54:28;5.57;;;2.85;;
22525;SDS011;11429;50.842;4.386;2023-05-01T01:56:57;5.88;;;3.30;;
22525;SDS011;11429;50.842;4.386;2023-05-01T01:59:25;3.22;;;2.33;;
22525;SDS011;11429;50.842;4.386;2023-05-01T02:01:56;4.00;;;2.80;;
22525;SDS011;11429;50.842;4.386;2023-05-01T02:04:24;3.92;;;2.67;;
22525;SDS011;11429;50.842;4.386;2023-05-01T02:06:52;4.05;;;2.90;;
22525;SDS011;11429;50.842;4.386;2023-05-01T02:09:20;3.85;;;3.03;;
22525;SDS011;11429;50.842;4.386;2023-05-01T02:11:48;5.78;;;2.90;;
22525;SDS011;11429;50.842;4.386;2023-05-01T02:14:16;5.75;;;2.90;;
22525;SDS011;11429;50.842;4.386;2023-05-01T02:16:43;5.53;;;2.60;;
22525;SDS011;11429;50.842;4.386;2023-05-01T02:19:09;3.67;;;3.00;;
22525;SDS011;11429;50.842;4.386;2023-05-01T02:21:37;6.30;;;3.15;;
22525;SDS011;11429;50.842;4.386;2023-05-01T02:24:04;4.60;;;3.20;;
22525;SDS011;11429;50.842;4.386;2023-05-01T02:26:31;6.93;;;3.00;;
22525;SDS011;11429;50.842;4.386;2023-05-01T02:29:02;6.18;;;2.85;;
22525;SDS011;11429;50.842;4.386;2023-05-01T02:31:31;6.80;;;3.00;;
22525;SDS011;11429;50.842;4.386;2023-05-01T02:33:57;4.70;;;2.95;;
22525;SDS011;11429;50.842;4.386;2023-05-01T02:36:23;3.67;;;2.95;;
22525;SDS011;11429;50.842;4.386;2023-05-01T02:38:49;4.82;;;3.05;;
22525;SDS011;11429;50.842;4.386;2023-05-01T02:41:15;8.63;;;5.57;;
22525;SDS011;11429;50.842;4.386;2023-05-01T02:43:45;6.90;;;3.22;;
22525;SDS011;11429;50.842;4.386;2023-05-01T02:46:15;4.90;;;2.88;;
22525;SDS011;11429;50.842;4.386;2023-05-01T02:48:42;5.32;;;3.55;;
22525;SDS011;11429;50.842;4.386;2023-05-01T02:51:08;5.38;;;3.03;;
22525;SDS011;11429;50.842;4.386;2023-05-01T02:53:35;4.10;;;3.03;;
22525;SDS011;11429;50.842;4.386;2023-05-01T02:56:02;4.65;;;3.42;;
22525;SDS011;11429;50.842;4.386;2023-05-01T02:58:29;6.47;;;3.53;;
22525;SDS011;11429;50.842;4.386;2023-05-01T03:00:58;4.85;;;3.40;;
22525;SDS011;11429;50.842;4.386;2023-05-01T03:03:24;5.95;;;3.50;;
22525;SDS011;11429;50.842;4.386;2023-05-01T03:05:50;5.60;;;3.17;;
22525;SDS011;11429;50.842;4.386;2023-05-01T03:08:16;4.35;;;3.45;;
22525;SDS011;11429;50.842;4.386;2023-05-01T03:10:41;4.65;;;3.75;;
22525;SDS011;11429;50.842;4.386;2023-05-01T03:13:07;4.43;;;2.90;;
22525;SDS011;11429;50.842;4.386;2023-05-01T03:15:35;4.03;;;3.47;;
22525;SDS011;11429;50.842;4.386;2023-05-01T03:18:01;6.22;;;3.50;;
22525;SDS011;11429;50.842;4.386;2023-05-01T03:20:27;8.00;;;3.92;;
22525;SDS011;11429;50.842;4.386;2023-05-01T03:22:53;5.95;;;3.30;;
22525;SDS011;11429;50.842;4.386;2023-05-01T03:25:20;4.03;;;3.50;;
22525;SDS011;11429;50.842;4.386;2023-05-01T03:27:46;6.40;;;3.60;;
22525;SDS011;11429;50.842;4.386;2023-05-01T03:30:12;5.32;;;3.58;;
22525;SDS011;11429;50.842;4.386;2023-05-01T03:32:38;4.88;;;3.47;;
22525;SDS011;11429;50.842;4.386;2023-05-01T03:35:04;5.68;;;3.47;;
22525;SDS011;11429;50.842;4.386;2023-05-01T03:37:31;6.85;;;4.25;;
22525;SDS011;11429;50.842;4.386;2023-05-01T03:39:57;6.75;;;4.25;;
22525;SDS011;11429;50.842;4.386;2023-05-01T03:42:23;4.55;;;3.90;;
22525;SDS011;11429;50.842;4.386;2023-05-01T03:44:49;6.20;;;4.00;;
22525;SDS011;11429;50.842;4.386;2023-05-01T03:47:15;5.55;;;3.80;;
22525;SDS011;11429;50.842;4.386;2023-05-01T03:49:41;7.20;;;3.97;;
22525;SDS011;11429;50.842;4.386;2023-05-01T03:52:07;6.40;;;4.03;;
22525;SDS011;11429;50.842;4.386;2023-05-01T03:54:34;7.28;;;4.30;;
22525;SDS011;11429;50.842;4.386;2023-05-01T03:57:02;7.35;;;4.22;;
22525;SDS011;11429;50.842;4.386;2023-05-01T03:59:28;7.13;;;3.90;;
22525;SDS011;11429;50.842;4.386;2023-05-01T04:01:54;5.93;;;4.60;;
22525;SDS011;11429;50.842;4.386;2023-05-01T04:04:19;6.70;;;4.10;;
22525;SDS011;11429;50.842;4.386;2023-05-01T04:06:45;10.13;;;4.00;;
22525;SDS011;11429;50.842;4.386;2023-05-01T04:09:13;5.32;;;3.83;;
22525;SDS011;11429;50.842;4.386;2023-05-01T04:11:39;5.15;;;3.85;;
22525;SDS011;11429;50.842;4.386;2023-05-01T04:14:05;5.45;;;3.90;;
22525;SDS011;11429;50.842;4.386;2023-05-01T04:16:31;7.85;;;3.78;;
22525;SDS011;11429;50.842;4.386;2023-05-01T04:18:57;3.95;;;3.42;;
22525;SDS011;11429;50.842;4.386;2023-05-01T04:21:23;6.30;;;4.30;;
22525;SDS011;11429;50.842;4.386;2023-05-01T04:23:49;9.63;;;4.65;;
22525;SDS011;11429;50.842;4.386;2023-05-01T04:26:14;9.02;;;5.20;;
22525;SDS011;11429;50.842;4.386;2023-05-01T04:28:41;5.63;;;4.40;;
22525;SDS011;11429;50.842;4.386;2023-05-01T04:31:06;5.40;;;3.97;;
22525;SDS011;11429;50.842;4.386;2023-05-01T04:33:32;6.43;;;4.55;;
22525;SDS011;11429;50.842;4.386;2023-05-01T04:35:58;6.47;;;4.45;;
22525;SDS011;11429;50.842;4.386;2023-05-01T04:38:24;9.20;;;4.70;;
22525;SDS011;11429;50.842;4.386;2023-05-01T04:40:49;6.53;;;4.60;;
22525;SDS011;11429;50.842;4.386;2023-05-01T04:43:16;8.02;;;4.70;;
22525;SDS011;11429;50.842;4.386;2023-05-01T04:45:42;8.25;;;4.75;;
22525;SDS011;11429;50.842;4.386;2023-05-01T04:48:07;7.63;;;4.78;;
22525;SDS011;11429;50.842;4.386;2023-05-01T04:50:33;9.40;;;5.30;;
22525;SDS011;11429;50.842;4.386;2023-05-01T04:52:59;9.30;;;5.60;;
22525;SDS011;11429;50.842;4.386;2023-05-01T04:55:24;9.20;;;5.38;;
22525;SDS011;11429;50.842;4.386;2023-05-01T04:57:50;7.68;;;5.03;;
22525;SDS011;11429;50.842;4.386;2023-05-01T05:00:16;7.68;;;5.22;;
22525;SDS011;11429;50.842;4.386;2023-05-01T05:02:43;6.90;;;5.13;;
22525;SDS011;11429;50.842;4.386;2023-05-01T05:05:10;9.25;;;5.20;;
22525;SDS011;11429;50.842;4.386;2023-05-01T05:07:36;7.40;;;4.97;;
22525;SDS011;11429;50.842;4.386;2023-05-01T05:10:02;8.55;;;5.50;;
22525;SDS011;11429;50.842;4.386;2023-05-01T05:12:27;6.47;;;4.70;;
22525;SDS011;11429;50.842;4.386;2023-05-01T05:14:53;6.43;;;4.95;;
22525;SDS011;11429;50.842;4.386;2023-05-01T05:17:19;7.18;;;4.22;;
22525;SDS011;11429;50.842;4.386;2023-05-01T05:19:44;6.05;;;4.63;;
22525;SDS011;11429;50.842;4.386;2023-05-01T05:22:10;7.13;;;5.18;;
22525;SDS011;11429;50.842;4.386;2023-05-01T05:24:36;5.85;;;4.72;;
22525;SDS011;11429;50.842;4.386;2023-05-01T05:27:02;8.32;;;4.93;;
22525;SDS011;11429;50.842;4.386;2023-05-01T05:29:30;6.47;;;4.80;;
22525;SDS011;11429;50.842;4.386;2023-05-01T05:31:56;7.32;;;5.03;;
22525;SDS011;11429;50.842;4.386;2023-05-01T05:34:23;6.93;;;4.82;;
22525;SDS011;11429;50.842;4.386;2023-05-01T05:36:49;8.48;;;4.75;;
22525;SDS011;11429;50.842;4.386;2023-05-01T05:39:15;6.15;;;4.60;;
22525;SDS011;11429;50.842;4.386;2023-05-01T05:41:40;5.78;;;4.50;;
22525;SDS011;11429;50.842;4.386;2023-05-01T05:44:06;6.57;;;4.70;;
22525;SDS011;11429;50.842;4.386;2023-05-01T05:46:32;8.68;;;4.90;;
22525;SDS011;11429;50.842;4.386;2023-05-01T05:48:58;8.23;;;4.65;;
22525;SDS011;11429;50.842;4.386;2023-05-01T05:51:23;8.07;;;5.30;;
22525;SDS011;11429;50.842;4.386;2023-05-01T05:53:49;5.38;;;4.72;;
22525;SDS011;11429;50.842;4.386;2023-05-01T05:56:15;5.07;;;4.57;;
22525;SDS011;11429;50.842;4.386;2023-05-01T05:58:41;7.05;;;5.15;;
22525;SDS011;11429;50.842;4.386;2023-05-01T06:01:07;5.97;;;5.03;;
22525;SDS011;11429;50.842;4.386;2023-05-01T06:03:33;8.90;;;5.60;;
22525;SDS011;11429;50.842;4.386;2023-05-01T06:06:00;8.57;;;5.55;;
22525;SDS011;11429;50.842;4.386;2023-05-01T06:08:26;7.35;;;5.47;;
22525;SDS011;11429;50.842;4.386;2023-05-01T06:10:52;10.65;;;6.55;;
22525;SDS011;11429;50.842;4.386;2023-05-01T06:13:17;8.35;;;6.75;;
22525;SDS011;11429;50.842;4.386;2023-05-01T06:15:43;7.28;;;6.05;;
22525;SDS011;11429;50.842;4.386;2023-05-01T06:18:09;9.07;;;8.05;;
22525;SDS011;11429;50.842;4.386;2023-05-01T06:20:35;9.90;;;7.15;;
22525;SDS011;11429;50.842;4.386;2023-05-01T06:23:01;6.95;;;6.35;;
22525;SDS011;11429;50.842;4.386;2023-05-01T06:25:27;9.30;;;7.22;;
22525;SDS011;11429;50.842;4.386;2023-05-01T06:27:52;8.98;;;7.10;;
22525;SDS011;11429;50.842;4.386;2023-05-01T06:30:18;7.57;;;6.85;;
22525;SDS011;11429;50.842;4.386;2023-05-01T06:32:45;12.25;;;8.95;;
22525;SDS011;11429;50.842;4.386;2023-05-01T06:35:11;7.85;;;7.13;;
22525;SDS011;11429;50.842;4.386;2023-05-01T06:37:37;8.88;;;7.88;;
22525;SDS011;11429;50.842;4.386;2023-05-01T06:40:06;8.73;;;7.32;;
22525;SDS011;11429;50.842;4.386;2023-05-01T06:42:32;10.45;;;7.78;;
22525;SDS011;11429;50.842;4.386;2023-05-01T06:44:58;9.07;;;8.05;;
22525;SDS011;11429;50.842;4.386;2023-05-01T06:47:24;8.63;;;7.80;;
22525;SDS011;11429;50.842;4.386;2023-05-01T06:49:49;10.85;;;8.07;;
22525;SDS011;11429;50.842;4.386;2023-05-01T06:52:15;12.73;;;8.50;;
22525;SDS011;11429;50.842;4.386;2023-05-01T06:54:41;11.70;;;10.50;;
22525;SDS011;11429;50.842;4.386;2023-05-01T06:57:06;12.50;;;11.20;;
22525;SDS011;11429;50.842;4.386;2023-05-01T06:59:32;14.40;;;12.90;;
22525;SDS011;11429;50.842;4.386;2023-05-01T07:01:58;15.52;;;13.88;;
22525;SDS011;11429;50.842;4.386;2023-05-01T07:04:23;17.50;;;14.85;;
22525;SDS011;11429;50.842;4.386;2023-05-01T07:06:49;18.80;;;16.90;;
22525;SDS011;11429;50.842;4.386;2023-05-01T07:09:15;19.83;;;17.83;;
22525;SDS011;11429;50.842;4.386;2023-05-01T07:11:41;22.48;;;18.17;;
22525;SDS011;11429;50.842;4.386;2023-05-01T07:14:07;23.20;;;19.15;;
22525;SDS011;11429;50.842;4.386;2023-05-01T07:16:32;24.52;;;20.20;;
22525;SDS011;11429;50.842;4.386;2023-05-01T07:18:58;23.50;;;20.08;;
22525;SDS011;11429;50.842;4.386;2023-05-01T07:21:24;22.83;;;20.33;;
22525;SDS011;11429;50.842;4.386;2023-05-01T07:23:50;22.52;;;20.15;;
22525;SDS011;11429;50.842;4.386;2023-05-01T07:26:15;22.77;;;18.15;;
22525;SDS011;11429;50.842;4.386;2023-05-01T07:28:41;21.75;;;18.88;;
22525;SDS011;11429;50.842;4.386;2023-05-01T07:31:10;22.45;;;19.58;;
22525;SDS011;11429;50.842;4.386;2023-05-01T07:33:36;20.48;;;18.40;;
22525;SDS011;11429;50.842;4.386;2023-05-01T07:36:02;21.05;;;18.85;;
22525;SDS011;11429;50.842;4.386;2023-05-01T07:38:28;23.80;;;19.38;;
22525;SDS011;11429;50.842;4.386;2023-05-01T07:40:54;22.77;;;18.83;;
22525;SDS011;11429;50.842;4.386;2023-05-01T07:43:21;22.08;;;19.08;;
22525;SDS011;11429;50.842;4.386;2023-05-01T07:45:56;21.90;;;19.45;;
22525;SDS011;11429;50.842;4.386;2023-05-01T07:48:24;26.20;;;20.15;;
22525;SDS011;11429;50.842;4.386;2023-05-01T07:50:53;23.05;;;20.10;;
22525;SDS011;11429;50.842;4.386;2023-05-01T07:53:19;24.15;;;21.55;;
22525;SDS011;11429;50.842;4.386;2023-05-01T07:55:46;23.98;;;20.77;;
22525;SDS011;11429;50.842;4.386;2023-05-01T07:58:12;24.40;;;20.90;;
22525;SDS011;11429;50.842;4.386;2023-05-01T08:00:39;24.77;;;21.88;;
22525;SDS011;11429;50.842;4.386;2023-05-01T08:03:05;27.58;;;22.88;;
22525;SDS011;11429;50.842;4.386;2023-05-01T08:05:31;25.10;;;21.70;;
22525;SDS011;11429;50.842;4.386;2023-05-01T08:07:57;29.63;;;22.63;;
22525;SDS011;11429;50.842;4.386;2023-05-01T08:10:22;27.20;;;22.27;;
22525;SDS011;11429;50.842;4.386;2023-05-01T08:12:48;29.15;;;23.15;;
22525;SDS011;11429;50.842;4.386;2023-05-01T08:15:14;27.33;;;23.33;;
22525;SDS011;11429;50.842;4.386;2023-05-01T08:17:39;28.45;;;22.75;;
22525;SDS011;11429;50.842;4.386;2023-05-01T08:20:05;26.88;;;22.40;;
22525;SDS011;11429;50.842;4.386;2023-05-01T08:22:31;28.48;;;24.42;;
22525;SDS011;11429;50.842;4.386;2023-05-01T08:24:57;29.05;;;23.90;;
22525;SDS011;11429;50.842;4.386;2023-05-01T08:27:23;29.50;;;24.92;;
22525;SDS011;11429;50.842;4.386;2023-05-01T08:29:48;32.60;;;26.45;;
22525;SDS011;11429;50.842;4.386;2023-05-01T08:32:14;29.92;;;24.55;;
22525;SDS011;11429;50.842;4.386;2023-05-01T08:34:41;28.50;;;24.75;;
22525;SDS011;11429;50.842;4.386;2023-05-01T08:37:06;32.53;;;25.52;;
22525;SDS011;11429;50.842;4.386;2023-05-01T08:39:32;30.17;;;25.63;;
22525;SDS011;11429;50.842;4.386;2023-05-01T08:41:58;32.70;;;25.83;;
22525;SDS011;11429;50.842;4.386;2023-05-01T08:44:24;32.10;;;25.88;;
22525;SDS011;11429;50.842;4.386;2023-05-01T08:49:39;30.10;;;25.67;;
22525;SDS011;11429;50.842;4.386;2023-05-01T08:52:05;32.72;;;26.83;;
22525;SDS011;11429;50.842;4.386;2023-05-01T08:54:32;30.83;;;26.67;;
22525;SDS011;11429;50.842;4.386;2023-05-01T08:56:59;31.02;;;27.45;;
22525;SDS011;11429;50.842;4.386;2023-05-01T08:59:30;37.65;;;29.55;;
22525;SDS011;11429;50.842;4.386;2023-05-01T09:01:59;32.92;;;27.17;;
22525;SDS011;11429;50.842;4.386;2023-05-01T09:04:31;35.33;;;29.60;;
22525;SDS011;11429;50.842;4.386;2023-05-01T09:07:02;33.43;;;28.90;;
22525;SDS011;11429;50.842;4.386;2023-05-01T09:09:29;33.72;;;29.90;;
22525;SDS011;11429;50.842;4.386;2023-05-01T09:11:56;35.97;;;29.90;;
22525;SDS011;11429;50.842;4.386;2023-05-01T09:14:44;34.25;;;28.85;;
22525;SDS011;11429;50.842;4.386;2023-05-01T09:17:10;40.05;;;30.73;;
22525;SDS011;11429;50.842;4.386;2023-05-01T09:19:37;38.78;;;31.52;;
22525;SDS011;11429;50.842;4.386;2023-05-01T09:22:04;36.85;;;31.02;;
22525;SDS011;11429;50.842;4.386;2023-05-01T09:24:30;38.45;;;31.63;;
22525;SDS011;11429;50.842;4.386;2023-05-01T09:26:57;36.78;;;30.75;;
22525;SDS011;11429;50.842;4.386;2023-05-01T09:29:36;35.22;;;30.30;;
22525;SDS011;11429;50.842;4.386;2023-05-01T09:34:42;39.65;;;31.92;;
22525;SDS011;11429;50.842;4.386;2023-05-01T09:37:13;42.03;;;33.17;;
22525;SDS011;11429;50.842;4.386;2023-05-01T09:42:37;41.70;;;32.78;;
22525;SDS011;11429;50.842;4.386;2023-05-01T09:45:06;44.40;;;34.25;;
22525;SDS011;11429;50.842;4.386;2023-05-01T09:47:43;44.72;;;34.47;;
22525;SDS011;11429;50.842;4.386;2023-05-01T09:50:11;41.85;;;32.63;;
22525;SDS011;11429;50.842;4.386;2023-05-01T09:52:53;42.58;;;33.00;;
22525;SDS011;11429;50.842;4.386;2023-05-01T09:55:18;39.72;;;32.30;;
22525;SDS011;11429;50.842;4.386;2023-05-01T09:57:45;40.50;;;32.92;;
22525;SDS011;11429;50.842;4.386;2023-05-01T10:00:12;41.15;;;32.40;;
22525;SDS011;11429;50.842;4.386;2023-05-01T10:02:42;40.10;;;32.33;;
22525;SDS011;11429;50.842;4.386;2023-05-01T10:05:10;42.22;;;30.98;;
22525;SDS011;11429;50.842;4.386;2023-05-01T10:07:36;34.22;;;29.75;;
22525;SDS011;11429;50.842;4.386;2023-05-01T10:10:18;38.35;;;31.63;;
22525;SDS011;11429;50.842;4.386;2023-05-01T10:12:45;38.38;;;31.70;;
22525;SDS011;11429;50.842;4.386;2023-05-01T10:15:11;39.65;;;30.85;;
22525;SDS011;11429;50.842;4.386;2023-05-01T10:17:38;34.58;;;27.95;;
22525;SDS011;11429;50.842;4.386;2023-05-01T10:20:05;33.72;;;27.27;;
22525;SDS011;11429;50.842;4.386;2023-05-01T10:22:32;35.25;;;27.58;;
22525;SDS011;11429;50.842;4.386;2023-05-01T10:24:58;34.13;;;26.35;;
22525;SDS011;11429;50.842;4.386;2023-05-01T10:27:24;32.63;;;26.33;;
22525;SDS011;11429;50.842;4.386;2023-05-01T10:29:51;33.33;;;26.73;;
22525;SDS011;11429;50.842;4.386;2023-05-01T10:32:18;29.05;;;24.10;;
22525;SDS011;11429;50.842;4.386;2023-05-01T10:34:54;26.55;;;22.50;;
22525;SDS011;11429;50.842;4.386;2023-05-01T10:37:25;27.13;;;23.42;;
22525;SDS011;11429;50.842;4.386;2023-05-01T10:43:15;31.23;;;24.35;;
22525;SDS011;11429;50.842;4.386;2023-05-01T10:45:45;27.40;;;22.80;;
22525;SDS011;11429;50.842;4.386;2023-05-01T10:53:44;29.42;;;25.77;;
22525;SDS011;11429;50.842;4.386;2023-05-01T10:58:54;33.28;;;26.30;;
22525;SDS011;11429;50.842;4.386;2023-05-01T11:01:31;27.57;;;23.80;;
22525;SDS011;11429;50.842;4.386;2023-05-01T11:15:02;30.67;;;23.77;;
22525;SDS011;11429;50.842;4.386;2023-05-01T11:20:11;29.95;;;23.25;;
22525;SDS011;11429;50.842;4.386;2023-05-01T11:22:38;28.88;;;22.77;;
22525;SDS011;11429;50.842;4.386;2023-05-01T11:25:16;27.55;;;22.00;;
22525;SDS011;11429;50.842;4.386;2023-05-01T11:27:47;24.35;;;20.55;;
22525;SDS011;11429;50.842;4.386;2023-05-01T11:30:14;23.63;;;19.65;;
22525;SDS011;11429;50.842;4.386;2023-05-01T11:32:44;22.75;;;19.73;;
22525;SDS011;11429;50.842;4.386;2023-05-01T11:35:30;22.92;;;20.27;;
22525;SDS011;11429;50.842;4.386;2023-05-01T11:37:56;20.10;;;16.92;;
22525;SDS011;11429;50.842;4.386;2023-05-01T11:40:27;19.00;;;15.45;;
22525;SDS011;11429;50.842;4.386;2023-05-01T11:43:03;18.10;;;15.15;;
22525;SDS011;11429;50.842;4.386;2023-05-01T11:45:30;18.65;;;15.07;;
22525;SDS011;11429;50.842;4.386;2023-05-01T11:47:57;18.10;;;14.00;;
22525;SDS011;11429;50.842;4.386;2023-05-01T11:50:41;15.20;;;13.57;;
22525;SDS011;11429;50.842;4.386;2023-05-01T11:53:10;14.20;;;12.70;;
22525;SDS011;11429;50.842;4.386;2023-05-01T11:55:38;15.65;;;12.98;;
22525;SDS011;11429;50.842;4.386;2023-05-01T11:58:04;14.40;;;11.52;;
22525;SDS011;11429;50.842;4.386;2023-05-01T12:05:33;13.40;;;11.27;;
22525;SDS011;11429;50.842;4.386;2023-05-01T12:08:17;14.93;;;11.20;;
22525;SDS011;11429;50.842;4.386;2023-05-01T12:13:15;13.02;;;10.90;;
22525;SDS011;11429;50.842;4.386;2023-05-01T12:15:43;14.57;;;11.50;;
22525;SDS011;11429;50.842;4.386;2023-05-01T12:18:10;14.75;;;11.32;;
22525;SDS011;11429;50.842;4.386;2023-05-01T12:20:37;15.10;;;12.32;;
22525;SDS011;11429;50.842;4.386;2023-05-01T12:23:05;15.40;;;12.32;;
22525;SDS011;11429;50.842;4.386;2023-05-01T12:25:32;17.02;;;12.85;;
22525;SDS011;11429;50.842;4.386;2023-05-01T12:28:00;17.30;;;13.82;;
22525;SDS011;11429;50.842;4.386;2023-05-01T12:30:27;16.42;;;13.18;;
22525;SDS011;11429;50.842;4.386;2023-05-01T12:32:54;17.38;;;13.52;;
22525;SDS011;11429;50.842;4.386;2023-05-01T12:35:21;21.35;;;14.05;;
22525;SDS011;11429;50.842;4.386;2023-05-01T12:37:47;19.17;;;13.23;;
22525;SDS011;11429;50.842;4.386;2023-05-01T12:40:14;16.05;;;14.15;;
22525;SDS011;11429;50.842;4.386;2023-05-01T12:42:41;18.60;;;14.52;;
22525;SDS011;11429;50.842;4.386;2023-05-01T12:45:07;17.67;;;15.30;;
22525;SDS011;11429;50.842;4.386;2023-05-01T12:47:39;19.88;;;15.13;;
22525;SDS011;11429;50.842;4.386;2023-05-01T12:50:05;20.27;;;15.48;;
22525;SDS011;11429;50.842;4.386;2023-05-01T12:52:31;18.50;;;16.30;;
22525;SDS011;11429;50.842;4.386;2023-05-01T12:55:04;19.50;;;15.63;;
22525;SDS011;11429;50.842;4.386;2023-05-01T12:57:31;20.45;;;15.80;;
22525;SDS011;11429;50.842;4.386;2023-05-01T13:00:01;19.75;;;15.98;;
22525;SDS011;11429;50.842;4.386;2023-05-01T13:02:31;18.38;;;16.40;;
22525;SDS011;11429;50.842;4.386;2023-05-01T13:05:07;18.83;;;16.20;;
22525;SDS011;11429;50.842;4.386;2023-05-01T13:07:37;20.63;;;16.58;;
22525;SDS011;11429;50.842;4.386;2023-05-01T13:10:04;22.42;;;17.73;;
22525;SDS011;11429;50.842;4.386;2023-05-01T13:12:31;20.83;;;17.30;;
22525;SDS011;11429;50.842;4.386;2023-05-01T13:14:57;22.23;;;19.10;;
22525;SDS011;11429;50.842;4.386;2023-05-01T13:17:27;25.52;;;22.70;;
22525;SDS011;11429;50.842;4.386;2023-05-01T13:19:55;22.77;;;19.85;;
22525;SDS011;11429;50.842;4.386;2023-05-01T13:22:28;21.50;;;19.02;;
22525;SDS011;11429;50.842;4.386;2023-05-01T13:24:58;23.55;;;19.77;;
22525;SDS011;11429;50.842;4.386;2023-05-01T13:27:25;27.33;;;21.23;;
22525;SDS011;11429;50.842;4.386;2023-05-01T13:29:54;24.05;;;20.40;;
22525;SDS011;11429;50.842;4.386;2023-05-01T13:32:24;23.10;;;19.58;;
22525;SDS011;11429;50.842;4.386;2023-05-01T13:34:50;28.10;;;22.23;;
22525;SDS011;11429;50.842;4.386;2023-05-01T13:37:18;24.67;;;21.20;;
22525;SDS011;11429;50.842;4.386;2023-05-01T13:39:45;27.80;;;22.88;;
22525;SDS011;11429;50.842;4.386;2023-05-01T13:42:11;27.13;;;23.02;;
22525;SDS011;11429;50.842;4.386;2023-05-01T13:44:43;27.77;;;23.23;;
22525;SDS011;11429;50.842;4.386;2023-05-01T13:47:16;30.35;;;23.15;;
22525;SDS011;11429;50.842;4.386;2023-05-01T13:49:42;28.75;;;24.05;;
22525;SDS011;11429;50.842;4.386;2023-05-01T13:52:16;26.25;;;22.25;;
22525;SDS011;11429;50.842;4.386;2023-05-01T13:54:43;25.95;;;20.83;;
22525;SDS011;11429;50.842;4.386;2023-05-01T13:57:10;25.90;;;20.42;;
22525;SDS011;11429;50.842;4.386;2023-05-01T13:59:37;25.20;;;20.50;;
22525;SDS011;11429;50.842;4.386;2023-05-01T14:02:41;24.58;;;20.52;;
22525;SDS011;11429;50.842;4.386;2023-05-01T14:05:06;28.17;;;22.30;;
22525;SDS011;11429;50.842;4.386;2023-05-01T14:07:39;29.00;;;22.00;;
22525;SDS011;11429;50.842;4.386;2023-05-01T14:10:19;26.15;;;21.67;;
22525;SDS011;11429;50.842;4.386;2023-05-01T14:12:47;27.60;;;22.10;;
22525;SDS011;11429;50.842;4.386;2023-05-01T14:15:12;27.67;;;22.35;;
22525;SDS011;11429;50.842;4.386;2023-05-01T14:17:38;28.60;;;23.60;;
22525;SDS011;11429;50.842;4.386;2023-05-01T14:20:05;25.42;;;21.88;;
22525;SDS011;11429;50.842;4.386;2023-05-01T14:22:42;27.30;;;21.83;;
22525;SDS011;11429;50.842;4.386;2023-05-01T14:25:29;28.58;;;20.90;;
22525;SDS011;11429;50.842;4.386;2023-05-01T14:27:59;23.92;;;17.70;;
22525;SDS011;11429;50.842;4.386;2023-05-01T14:35:46;17.63;;;14.25;;
22525;SDS011;11429;50.842;4.386;2023-05-01T14:38:14;17.85;;;14.43;;
22525;SDS011;11429;50.842;4.386;2023-05-01T14:40:41;16.10;;;13.95;;
22525;SDS011;11429;50.842;4.386;2023-05-01T14:43:12;19.27;;;15.45;;
22525;SDS011;11429;50.842;4.386;2023-05-01T14:45:43;16.73;;;13.73;;
22525;SDS011;11429;50.842;4.386;2023-05-01T14:48:12;17.17;;;13.70;;
22525;SDS011;11429;50.842;4.386;2023-05-01T14:50:47;16.63;;;13.90;;
22525;SDS011;11429;50.842;4.386;2023-05-01T14:53:13;17.15;;;13.98;;
22525;SDS011;11429;50.842;4.386;2023-05-01T14:55:39;19.52;;;14.05;;
22525;SDS011;11429;50.842;4.386;2023-05-01T14:58:06;14.95;;;12.30;;
22525;SDS011;11429;50.842;4.386;2023-05-01T15:00:32;16.70;;;12.85;;
22525;SDS011;11429;50.842;4.386;2023-05-01T15:02:58;18.10;;;12.02;;
22525;SDS011;11429;50.842;4.386;2023-05-01T15:05:25;15.02;;;10.77;;
22525;SDS011;11429;50.842;4.386;2023-05-01T15:07:55;15.00;;;11.27;;
22525;SDS011;11429;50.842;4.386;2023-05-01T15:10:21;16.23;;;13.20;;
22525;SDS011;11429;50.842;4.386;2023-05-01T15:12:49;18.58;;;11.68;;
22525;SDS011;11429;50.842;4.386;2023-05-01T15:15:16;13.48;;;10.68;;
22525;SDS011;11429;50.842;4.386;2023-05-01T15:17:41;13.38;;;11.10;;
22525;SDS011;11429;50.842;4.386;2023-05-01T15:20:07;14.30;;;11.63;;
22525;SDS011;11429;50.842;4.386;2023-05-01T15:22:36;17.33;;;13.43;;
22525;SDS011;11429;50.842;4.386;2023-05-01T15:25:01;15.98;;;14.23;;
22525;SDS011;11429;50.842;4.386;2023-05-01T15:27:27;17.77;;;14.45;;
22525;SDS011;11429;50.842;4.386;2023-05-01T15:29:53;19.05;;;16.20;;
22525;SDS011;11429;50.842;4.386;2023-05-01T15:32:19;16.67;;;14.68;;
22525;SDS011;11429;50.842;4.386;2023-05-01T15:34:45;17.15;;;13.60;;
22525;SDS011;11429;50.842;4.386;2023-05-01T15:37:10;22.10;;;17.10;;
22525;SDS011;11429;50.842;4.386;2023-05-01T15:39:36;20.08;;;17.38;;
22525;SDS011;11429;50.842;4.386;2023-05-01T15:42:04;22.42;;;18.40;;